Time;durP1;ratioP1;P1;durP2;ratioP2;P2;SDS_P1;SDS_P2;PMS_P1;PMS_P2;Temp;Humidity;BMP_temperature;BMP_pressure;BME280_temperature;BME280_humidity;BME280_pressure;Samples;Min_cycle;Max_cycle;Signal;HPM_P1;HPM_P2
2023/05/11 00:02:00;;;;;;;6.63;5.90;;;18.30;41.30;;;;;;5112379;28;20163;-52
2023/05/11 00:04:26;;;;;;;5.40;4.90;;;18.30;41.30;;;;;;5112480;28;20333;-52
2023/05/11 00:06:54;;;;;;;7.10;6.50;;;18.30;41.30;;;;;;5112758;28;20175;-52
2023/05/11 00:09:20;;;;;;;7.45;6.40;;;18.20;41.30;;;;;;5112147;28;20518;-52
2023/05/11 00:11:46;;;;;;;7.17;6.00;;;18.20;41.30;;;;;;5112565;28;20252;-52
2023/05/11 00:14:11;;;;;;;6.40;5.80;;;18.20;41.30;;;;;;5112428;28;20175;-52
2023/05/11 00:16:37;;;;;;;7.03;5.20;;;18.10;41.30;;;;;;5112318;28;20167;-51
2023/05/11 00:19:03;;;;;;;6.80;5.70;;;18.10;41.30;;;;;;5112230;28;20171;-52
2023/05/11 00:21:29;;;;;;;7.30;6.60;;;18.00;41.40;;;;;;5111016;28;20187;-51
2023/05/11 00:23:55;;;;;;;6.00;5.50;;;18.00;41.40;;;;;;5112415;28;21133;-52
2023/05/11 00:26:21;;;;;;;7.03;6.33;;;17.90;41.50;;;;;;5112365;28;20393;-52
2023/05/11 00:28:47;;;;;;;6.95;6.25;;;17.90;41.60;;;;;;5112176;28;20653;-52
2023/05/11 00:31:12;;;;;;;6.67;6.07;;;17.90;41.60;;;;;;5112011;28;20203;-52
2023/05/11 00:33:38;;;;;;;5.97;5.47;;;17.80;41.50;;;;;;5112557;28;20171;-52
2023/05/11 00:36:04;;;;;;;7.70;5.77;;;17.80;41.50;;;;;;5112336;28;20704;-51
2023/05/11 00:38:31;;;;;;;6.40;5.80;;;17.70;41.50;;;;;;5112395;28;20171;-52
2023/05/11 00:40:57;;;;;;;6.35;5.75;;;17.70;41.60;;;;;;5111912;28;20215;-52
2023/05/11 00:43:22;;;;;;;7.75;6.18;;;17.60;41.70;;;;;;5115633;28;20175;-52
2023/05/11 00:45:48;;;;;;;6.03;5.43;;;17.60;41.70;;;;;;5116261;28;20171;-52
2023/05/11 00:48:15;;;;;;;6.60;5.80;;;17.50;41.80;;;;;;5116359;28;20174;-52
2023/05/11 00:50:41;;;;;;;9.70;6.00;;;17.50;41.90;;;;;;5115808;28;20218;-52
2023/05/11 00:53:06;;;;;;;5.40;5.00;;;17.50;42.00;;;;;;5116023;28;20648;-52
2023/05/11 00:55:32;;;;;;;6.00;5.40;;;17.40;41.80;;;;;;5115973;28;20437;-52
2023/05/11 00:57:59;;;;;;;6.83;5.83;;;17.40;41.80;;;;;;5115919;28;20457;-52
2023/05/11 01:00:25;;;;;;;8.80;5.95;;;17.40;41.90;;;;;;5115507;28;20958;-52
2023/05/11 01:02:52;;;;;;;5.53;5.03;;;17.30;41.70;;;;;;5115814;28;20270;-52
2023/05/11 01:05:18;;;;;;;6.40;5.80;;;17.30;41.70;;;;;;5115959;28;20208;-52
2023/05/11 01:07:43;;;;;;;7.23;6.53;;;17.30;41.60;;;;;;5115737;28;20172;-52
2023/05/11 01:10:21;;;;;;;6.00;5.40;;;17.30;41.60;;;;;;5115383;28;20523;-52
2023/05/11 01:13:01;;;;;;;5.72;5.20;;;17.30;41.80;;;;;;5115552;28;20182;-52
2023/05/11 01:15:56;;;;;;;6.95;6.25;;;17.30;41.90;;;;;;5115533;28;20260;-52
2023/05/11 01:18:29;;;;;;;5.72;5.13;;;17.20;41.80;;;;;;5115315;28;20183;-52
2023/05/11 01:20:58;;;;;;;6.30;5.70;;;17.20;41.70;;;;;;5115091;28;20859;-52
2023/05/11 01:23:27;;;;;;;10.07;7.80;;;17.20;41.70;;;;;;5115511;28;20168;-52
2023/05/11 01:26:28;;;;;;;6.28;5.57;;;17.10;41.70;;;;;;5114136;28;20167;-52
2023/05/11 01:29:21;;;;;;;7.35;6.15;;;17.10;41.70;;;;;;5115479;28;20167;-52
2023/05/11 01:31:48;;;;;;;7.55;5.88;;;17.00;41.90;;;;;;5115269;28;20237;-52
2023/05/11 01:34:22;;;;;;;5.78;5.18;;;16.80;41.90;;;;;;5115310;28;20552;-51
2023/05/11 01:36:59;;;;;;;7.93;5.32;;;16.80;41.90;;;;;;5115114;28;20170;-52
2023/05/11 01:39:42;;;;;;;5.88;5.28;;;16.70;42.00;;;;;;5114802;28;20202;-52
2023/05/11 01:42:10;;;;;;;7.25;5.20;;;16.70;42.00;;;;;;5115115;28;20664;-52
2023/05/11 01:44:41;;;;;;;7.07;5.90;;;16.70;42.10;;;;;;5115112;28;20175;-52
2023/05/11 01:47:09;;;;;;;6.57;5.60;;;16.60;42.00;;;;;;5114945;28;20882;-52
2023/05/11 01:49:37;;;;;;;6.72;6.03;;;16.60;41.90;;;;;;5113389;28;20676;-52
2023/05/11 01:52:06;;;;;;;6.80;5.50;;;16.50;42.00;;;;;;5079848;28;20172;-52
2023/05/11 01:54:34;;;;;;;6.25;5.65;;;16.50;42.10;;;;;;5114691;28;20203;-52
2023/05/11 01:57:01;;;;;;;6.18;5.20;;;16.40;42.10;;;;;;5114830;28;20178;-51
2023/05/11 01:59:29;;;;;;;6.15;4.70;;;16.40;42.10;;;;;;5114439;28;20231;-52
2023/05/11 02:01:56;;;;;;;5.82;5.32;;;16.40;42.20;;;;;;5114584;28;20191;-52
2023/05/11 02:04:23;;;;;;;6.85;6.15;;;16.30;42.40;;;;;;5114597;28;20163;-52
2023/05/11 02:06:51;;;;;;;6.20;5.60;;;16.30;42.50;;;;;;5114455;28;20211;-51
2023/05/11 02:09:18;;;;;;;5.53;5.03;;;16.30;42.60;;;;;;5114081;28;20693;-52
2023/05/11 02:11:46;;;;;;;5.70;5.20;;;16.30;42.60;;;;;;5114428;28;20198;-52
2023/05/11 02:14:13;;;;;;;6.32;5.60;;;16.30;42.60;;;;;;5114391;28;20167;-52
2023/05/11 02:16:39;;;;;;;5.80;5.20;;;16.30;42.50;;;;;;5114369;28;20159;-52
2023/05/11 02:19:06;;;;;;;6.72;5.85;;;16.30;42.40;;;;;;5113991;27;20172;-52
2023/05/11 02:21:33;;;;;;;6.20;5.60;;;16.20;42.30;;;;;;5114110;28;20174;-52
2023/05/11 02:24:02;;;;;;;8.50;6.32;;;16.20;42.40;;;;;;5114578;28;20175;-52
2023/05/11 02:26:28;;;;;;;5.60;5.10;;;16.10;42.40;;;;;;5114506;28;20179;-52
2023/05/11 02:28:55;;;;;;;7.15;4.32;;;16.10;42.40;;;;;;5113042;28;20174;-52
2023/05/11 02:31:27;;;;;;;5.75;5.15;;;16.10;42.50;;;;;;5095844;28;20256;-52
2023/05/11 02:33:55;;;;;;;5.50;4.90;;;16.10;42.30;;;;;;5114117;28;20695;-52
2023/05/11 02:36:22;;;;;;;8.48;5.80;;;16.10;42.30;;;;;;5113961;28;20581;-52
2023/05/11 02:38:51;;;;;;;6.10;5.50;;;16.00;42.10;;;;;;5113919;28;20174;-51
2023/05/11 02:41:23;;;;;;;6.63;5.30;;;16.00;42.30;;;;;;5113604;28;20198;-52
2023/05/11 02:43:53;;;;;;;5.82;5.30;;;15.90;42.30;;;;;;5112571;28;20168;-52
2023/05/11 02:46:27;;;;;;;7.47;4.18;;;15.90;42.20;;;;;;5113738;28;20220;-51
2023/05/11 02:48:56;;;;;;;8.13;6.40;;;15.80;42.20;;;;;;5113566;28;20228;-52
2023/05/11 02:51:29;;;;;;;7.70;5.75;;;15.80;42.80;;;;;;5113515;28;20260;-52
2023/05/11 02:53:58;;;;;;;5.90;5.20;;;15.80;42.30;;;;;;5113729;28;20178;-52
2023/05/11 02:56:24;;;;;;;9.05;6.60;;;15.80;42.40;;;;;;5113575;28;20259;-52
2023/05/11 02:58:50;;;;;;;7.10;6.40;;;15.70;42.20;;;;;;5113560;28;20198;-52
2023/05/11 03:01:16;;;;;;;7.23;6.27;;;15.70;42.30;;;;;;5112995;28;20206;-52
2023/05/11 03:03:42;;;;;;;7.30;6.60;;;15.70;42.30;;;;;;5113315;28;20163;-52
2023/05/11 03:06:08;;;;;;;6.70;5.17;;;15.70;42.30;;;;;;5112958;28;20231;-51
2023/05/11 03:08:34;;;;;;;7.80;5.47;;;15.60;42.40;;;;;;5113411;28;20401;-52
2023/05/11 03:11:01;;;;;;;6.45;5.25;;;15.60;42.30;;;;;;5112931;28;20203;-52
2023/05/11 03:13:28;;;;;;;9.93;5.72;;;15.60;42.20;;;;;;5113202;28;20225;-52
2023/05/11 03:15:54;;;;;;;5.53;5.03;;;15.60;42.30;;;;;;5113535;28;20536;-52
2023/05/11 03:18:22;;;;;;;6.78;5.40;;;15.60;42.20;;;;;;5113220;28;20183;-51
2023/05/11 03:20:50;;;;;;;7.28;5.80;;;15.70;42.40;;;;;;5112740;28;20203;-53
2023/05/11 03:23:17;;;;;;;5.85;5.28;;;15.70;42.40;;;;;;5094993;28;20174;-51
2023/05/11 03:25:44;;;;;;;6.28;5.57;;;15.60;42.30;;;;;;5112974;28;20190;-51
2023/05/11 03:28:13;;;;;;;5.55;4.97;;;15.60;42.30;;;;;;5112926;28;20178;-51
2023/05/11 03:30:42;;;;;;;6.85;6.15;;;15.60;42.50;;;;;;5111369;28;20707;-51
2023/05/11 03:33:08;;;;;;;7.50;6.45;;;15.60;42.50;;;;;;5112993;28;20232;-53
2023/05/11 03:35:35;;;;;;;9.10;6.30;;;15.60;42.40;;;;;;5112999;28;20203;-53
2023/05/11 03:38:03;;;;;;;9.57;6.28;;;15.60;42.40;;;;;;5113261;28;20235;-50
2023/05/11 03:40:30;;;;;;;5.90;5.30;;;15.60;42.50;;;;;;5112279;28;20202;-51
2023/05/11 03:42:58;;;;;;;6.57;5.97;;;15.70;42.40;;;;;;5112651;28;20204;-52
2023/05/11 03:45:27;;;;;;;6.68;5.70;;;15.70;42.30;;;;;;5112673;28;20268;-50
2023/05/11 03:47:55;;;;;;;7.18;5.10;;;15.70;43.00;;;;;;5112863;28;20172;-51
2023/05/11 03:50:21;;;;;;;8.52;5.93;;;15.80;42.70;;;;;;5112418;28;20264;-53
2023/05/11 03:52:48;;;;;;;7.07;6.43;;;15.80;42.80;;;;;;5112550;28;20180;-54
2023/05/11 03:55:15;;;;;;;6.57;5.97;;;15.80;43.10;;;;;;5112337;28;20175;-52
2023/05/11 03:57:41;;;;;;;7.70;6.13;;;15.80;43.00;;;;;;5112399;28;20270;-55
2023/05/11 04:00:10;;;;;;;6.80;6.10;;;15.80;42.90;;;;;;5112278;28;20568;-55
2023/05/11 04:02:36;;;;;;;5.97;5.38;;;15.90;43.00;;;;;;5112499;28;20541;-53
2023/05/11 04:05:09;;;;;;;6.20;5.55;;;15.90;42.90;;;;;;5112449;28;20224;-51
2023/05/11 04:07:37;;;;;;;7.60;6.15;;;16.00;42.90;;;;;;5112405;28;20171;-54
2023/05/11 04:10:04;;;;;;;9.10;6.07;;;16.00;42.70;;;;;;5112198;28;20214;-55
2023/05/11 04:12:30;;;;;;;7.13;6.28;;;16.10;42.50;;;;;;5106710;28;20179;-53
2023/05/11 04:14:56;;;;;;;8.23;6.60;;;16.20;42.30;;;;;;5112492;28;20176;-52
2023/05/11 04:17:23;;;;;;;7.10;6.40;;;16.30;42.30;;;;;;5116224;28;20294;-55
2023/05/11 04:19:48;;;;;;;8.32;6.53;;;16.30;42.20;;;;;;5115177;28;20199;-53
2023/05/11 04:22:15;;;;;;;7.47;6.73;;;16.30;42.10;;;;;;5098498;28;20190;-51
2023/05/11 04:24:41;;;;;;;6.65;6.00;;;16.40;42.10;;;;;;5116754;28;20546;-56
2023/05/11 04:27:07;;;;;;;6.03;5.43;;;16.50;42.10;;;;;;5116888;28;20261;-53
2023/05/11 04:29:32;;;;;;;5.60;5.10;;;16.50;42.00;;;;;;5116188;28;20664;-55
2023/05/11 04:31:59;;;;;;;6.78;5.47;;;16.60;41.70;;;;;;5116506;28;20179;-55
2023/05/11 04:34:24;;;;;;;6.37;5.77;;;16.70;41.70;;;;;;5116341;28;20198;-52
2023/05/11 04:36:50;;;;;;;6.00;5.40;;;16.80;41.40;;;;;;5115013;28;20175;-53
2023/05/11 04:39:16;;;;;;;5.47;5.00;;;16.90;41.30;;;;;;5116231;28;20843;-53
2023/05/11 04:41:45;;;;;;;8.00;5.50;;;17.00;41.00;;;;;;5117196;28;20572;-52
2023/05/11 04:44:11;;;;;;;8.98;5.57;;;17.10;40.90;;;;;;5116298;28;20197;-52
2023/05/11 04:46:37;;;;;;;6.33;5.20;;;17.10;40.90;;;;;;5117533;28;20540;-51
2023/05/11 04:49:06;;;;;;;11.93;5.75;;;17.20;40.60;;;;;;5098543;28;20401;-54
2023/05/11 04:51:32;;;;;;;5.88;5.38;;;17.30;40.10;;;;;;5117254;28;20175;-53
2023/05/11 04:53:58;;;;;;;5.47;4.90;;;17.40;40.10;;;;;;5113997;28;20182;-51
2023/05/11 04:56:25;;;;;;;7.97;5.77;;;17.50;39.80;;;;;;5117282;28;20180;-54
2023/05/11 04:58:50;;;;;;;6.97;5.20;;;17.60;39.40;;;;;;5116853;28;20503;-52
2023/05/11 05:01:16;;;;;;;5.27;4.77;;;17.70;39.60;;;;;;5116862;28;20260;-51
2023/05/11 05:03:43;;;;;;;6.63;5.67;;;17.80;39.70;;;;;;5115819;28;20170;-53
2023/05/11 05:06:09;;;;;;;9.68;5.18;;;18.00;39.80;;;;;;5116650;28;20403;-53
2023/05/11 05:08:35;;;;;;;5.50;5.00;;;18.20;39.50;;;;;;5116550;28;20171;-50
2023/05/11 05:11:01;;;;;;;5.47;4.68;;;18.30;38.80;;;;;;5115945;28;20221;-51
2023/05/11 05:13:27;;;;;;;6.78;5.90;;;18.40;38.60;;;;;;5116493;28;20190;-53
2023/05/11 05:15:53;;;;;;;6.93;5.07;;;18.50;38.00;;;;;;5116658;28;20171;-53
2023/05/11 05:18:19;;;;;;;9.70;5.20;;;18.50;37.80;;;;;;5116503;28;20202;-51
2023/05/11 05:20:47;;;;;;;5.60;5.10;;;18.60;37.30;;;;;;5116095;28;20877;-51
2023/05/11 05:23:13;;;;;;;5.88;5.25;;;18.70;37.60;;;;;;5115229;28;20540;-53
2023/05/11 05:25:39;;;;;;;7.43;5.30;;;18.70;37.50;;;;;;5116505;28;20159;-53
2023/05/11 05:28:05;;;;;;;4.83;4.30;;;18.70;37.20;;;;;;5115518;28;20413;-51
2023/05/11 05:30:32;;;;;;;6.13;5.53;;;18.80;37.00;;;;;;5114437;28;20435;-50
2023/05/11 05:32:57;;;;;;;5.40;4.90;;;18.80;37.00;;;;;;5116757;28;20543;-54
2023/05/11 05:35:23;;;;;;;6.37;5.77;;;18.80;37.40;;;;;;5115850;28;20172;-52
2023/05/11 05:37:49;;;;;;;6.93;5.20;;;18.90;37.10;;;;;;5115417;28;20163;-54
2023/05/11 05:40:15;;;;;;;5.90;5.10;;;19.00;37.90;;;;;;5115383;27;20207;-51
2023/05/11 05:42:40;;;;;;;5.77;5.00;;;19.10;37.00;;;;;;5114013;27;20536;-53
2023/05/11 05:45:07;;;;;;;5.40;4.57;;;19.20;37.00;;;;;;5115035;28;20406;-54
2023/05/11 05:47:32;;;;;;;5.45;4.95;;;19.30;36.80;;;;;;5116230;28;20214;-51
2023/05/11 05:49:58;;;;;;;6.67;5.40;;;19.40;36.40;;;;;;5115785;28;20225;-53
2023/05/11 05:52:24;;;;;;;6.60;4.60;;;19.60;36.10;;;;;;5116207;28;20692;-56
2023/05/11 05:54:50;;;;;;;9.90;4.67;;;19.60;36.00;;;;;;5116038;28;20163;-53
2023/05/11 05:57:15;;;;;;;4.43;4.03;;;19.80;35.00;;;;;;5115774;28;20397;-53
2023/05/11 05:59:41;;;;;;;4.93;4.37;;;19.90;35.80;;;;;;5114871;27;20206;-56
2023/05/11 06:02:07;;;;;;;5.43;4.23;;;20.00;35.30;;;;;;5115661;28;20428;-54
2023/05/11 06:04:33;;;;;;;4.70;4.23;;;20.10;34.90;;;;;;5108923;28;20583;-52
2023/05/11 06:06:59;;;;;;;7.30;4.87;;;20.10;34.80;;;;;;5111774;28;20409;-54
2023/05/11 06:09:25;;;;;;;6.10;4.65;;;20.20;35.00;;;;;;5114902;28;20187;-55
2023/05/11 06:11:52;;;;;;;5.17;4.67;;;20.30;35.20;;;;;;5115366;28;20178;-52
2023/05/11 06:14:19;;;;;;;4.45;3.95;;;20.40;34.30;;;;;;5115106;28;20236;-53
2023/05/11 06:16:44;;;;;;;4.18;3.65;;;20.50;34.90;;;;;;5115048;28;20171;-55
2023/05/11 06:19:10;;;;;;;5.30;3.73;;;20.50;33.90;;;;;;5115093;28;20186;-56
2023/05/11 06:21:36;;;;;;;4.57;4.00;;;20.60;33.90;;;;;;5114878;28;20617;-53
2023/05/11 06:24:02;;;;;;;4.03;3.63;;;20.70;33.50;;;;;;5114946;28;20220;-53
2023/05/11 06:26:28;;;;;;;4.45;4.05;;;20.80;33.60;;;;;;5115039;28;20535;-55
2023/05/11 06:28:54;;;;;;;5.15;3.55;;;20.80;32.50;;;;;;5114769;28;20168;-55
2023/05/11 06:31:21;;;;;;;5.33;4.10;;;20.70;33.10;;;;;;5114539;27;20191;-56
2023/05/11 06:33:47;;;;;;;4.50;4.10;;;20.80;33.10;;;;;;5114888;28;20232;-51
2023/05/11 06:36:13;;;;;;;4.60;4.10;;;20.90;32.60;;;;;;5114608;28;20198;-52
2023/05/11 06:38:39;;;;;;;5.80;3.93;;;20.90;32.70;;;;;;5114327;27;20910;-55
2023/05/11 06:41:06;;;;;;;4.03;3.43;;;21.00;32.60;;;;;;5113348;28;20271;-55
2023/05/11 06:43:32;;;;;;;3.90;3.50;;;21.00;32.20;;;;;;5114638;28;20408;-52
2023/05/11 06:45:58;;;;;;;4.70;3.47;;;20.90;32.30;;;;;;5114523;28;20524;-55
2023/05/11 06:48:24;;;;;;;5.03;4.10;;;20.90;33.10;;;;;;5114461;28;20172;-53
2023/05/11 06:50:51;;;;;;;4.50;4.10;;;21.00;32.70;;;;;;5113982;28;20196;-55
2023/05/11 06:53:17;;;;;;;4.75;4.05;;;21.10;32.70;;;;;;5113963;28;20232;-53
2023/05/11 06:55:43;;;;;;;4.00;3.60;;;21.30;33.50;;;;;;5114204;28;20171;-55
2023/05/11 06:58:08;;;;;;;7.60;3.50;;;21.50;33.10;;;;;;5114316;28;20176;-56
2023/05/11 07:00:34;;;;;;;5.30;4.07;;;21.50;31.80;;;;;;5113961;28;20209;-53
2023/05/11 07:03:00;;;;;;;6.10;3.37;;;21.60;31.80;;;;;;5113675;28;20518;-52
2023/05/11 07:05:26;;;;;;;3.13;2.83;;;21.70;32.10;;;;;;5113985;28;20167;-55
2023/05/11 07:07:52;;;;;;;5.37;3.13;;;21.80;32.20;;;;;;5115124;28;20227;-54
2023/05/11 07:10:18;;;;;;;4.23;3.83;;;21.90;31.50;;;;;;5113617;28;20450;-56
2023/05/11 07:12:43;;;;;;;4.67;3.70;;;22.00;31.70;;;;;;5113284;28;20239;-53
2023/05/11 07:15:09;;;;;;;4.10;3.63;;;22.10;30.90;;;;;;5113773;28;20171;-55
2023/05/11 07:17:36;;;;;;;3.90;3.57;;;22.10;31.60;;;;;;5114581;28;20175;-54
2023/05/11 07:20:01;;;;;;;6.13;3.83;;;22.30;31.20;;;;;;5113638;28;20445;-54
2023/05/11 07:22:27;;;;;;;6.20;3.60;;;22.30;30.90;;;;;;5113007;28;20416;-54
2023/05/11 07:24:53;;;;;;;5.63;3.70;;;22.30;31.00;;;;;;5113759;28;20167;-55
2023/05/11 07:27:18;;;;;;;5.30;3.77;;;22.40;31.00;;;;;;5114227;28;20171;-56
2023/05/11 07:29:44;;;;;;;4.20;3.80;;;22.40;30.70;;;;;;5113340;28;20191;-54
2023/05/11 07:32:10;;;;;;;3.73;3.33;;;22.50;31.10;;;;;;5112427;28;20644;-56
2023/05/11 07:34:36;;;;;;;6.87;4.10;;;22.60;30.70;;;;;;5113655;28;20412;-55
2023/05/11 07:37:01;;;;;;;5.23;4.23;;;22.70;31.30;;;;;;5113792;28;20663;-56
2023/05/11 07:39:27;;;;;;;3.17;2.87;;;22.90;30.80;;;;;;5113187;28;20243;-53
2023/05/11 07:41:53;;;;;;;3.90;2.97;;;23.10;30.60;;;;;;5113298;28;20159;-52
2023/05/11 07:44:19;;;;;;;3.50;3.20;;;23.10;30.30;;;;;;5113623;28;20168;-53
2023/05/11 07:46:45;;;;;;;5.23;3.90;;;23.10;29.20;;;;;;5113603;28;20227;-56
2023/05/11 07:49:11;;;;;;;4.90;3.80;;;23.10;29.40;;;;;;5113366;28;20466;-54
2023/05/11 07:51:37;;;;;;;9.90;5.80;;;23.20;29.60;;;;;;5113141;28;20191;-56
2023/05/11 07:54:03;;;;;;;4.03;3.53;;;23.20;30.00;;;;;;5112998;28;20413;-56
2023/05/11 07:56:29;;;;;;;4.00;3.60;;;23.30;30.00;;;;;;5112987;28;20163;-56
2023/05/11 07:59:25;;;;;;;4.80;3.57;;;23.50;29.90;;;;;;5111704;28;20416;-52
2023/05/11 08:01:51;;;;;;;4.73;4.30;;;23.50;29.10;;;;;;5112971;28;20416;-56
2023/05/11 08:04:17;;;;;;;3.90;3.50;;;23.60;28.50;;;;;;5113090;28;20774;-56
2023/05/11 08:06:43;;;;;;;3.70;3.30;;;23.60;28.60;;;;;;5112930;28;20228;-53
2023/05/11 08:09:09;;;;;;;4.33;3.13;;;23.70;28.00;;;;;;5112254;28;20435;-56
2023/05/11 08:11:36;;;;;;;5.30;4.07;;;23.70;28.40;;;;;;5112235;28;20798;-55
2023/05/11 08:14:02;;;;;;;6.80;4.17;;;23.70;28.80;;;;;;5112640;28;20404;-54
2023/05/11 08:16:28;;;;;;;5.20;4.30;;;23.80;29.00;;;;;;5112871;28;20247;-54
2023/05/11 08:18:54;;;;;;;4.40;3.57;;;24.00;28.30;;;;;;5112806;28;20828;-53
2023/05/11 08:21:19;;;;;;;5.10;4.57;;;24.00;27.70;;;;;;5112870;28;20245;-56
2023/05/11 08:23:45;;;;;;;3.93;3.60;;;24.10;28.20;;;;;;5112906;28;20239;-53
2023/05/11 08:26:11;;;;;;;3.87;3.57;;;24.10;28.40;;;;;;5112601;28;20167;-52
2023/05/11 08:28:37;;;;;;;3.80;3.40;;;24.20;27.90;;;;;;5113470;28;20192;-54
2023/05/11 08:31:03;;;;;;;5.63;4.10;;;24.40;27.60;;;;;;5112738;28;20207;-54
2023/05/11 08:33:28;;;;;;;4.80;4.30;;;24.50;27.60;;;;;;5113350;28;20420;-52
2023/05/11 08:35:54;;;;;;;4.93;4.43;;;24.40;27.00;;;;;;5112730;28;20409;-55
2023/05/11 08:38:20;;;;;;;3.93;3.53;;;24.40;27.20;;;;;;5113190;28;20183;-55
2023/05/11 08:40:46;;;;;;;6.67;3.67;;;24.40;26.70;;;;;;5112882;28;20210;-54
2023/05/11 08:43:17;;;;;;;6.00;3.83;;;24.30;26.90;;;;;;5113908;28;20401;-53
2023/05/11 08:45:47;;;;;;;5.53;3.90;;;24.40;27.50;;;;;;5113678;28;20843;-55
2023/05/11 08:48:16;;;;;;;3.70;3.23;;;24.50;27.60;;;;;;5113946;28;20413;-55
2023/05/11 08:50:44;;;;;;;3.60;3.30;;;24.60;27.00;;;;;;5113530;28;20450;-56
2023/05/11 08:53:10;;;;;;;4.00;3.53;;;24.80;27.90;;;;;;5114445;28;20439;-53
2023/05/11 08:55:39;;;;;;;4.77;3.40;;;24.90;27.10;;;;;;5113766;28;20453;-53
2023/05/11 08:58:06;;;;;;;4.03;3.70;;;25.00;26.30;;;;;;5113666;28;20440;-56
2023/05/11 09:00:32;;;;;;;4.90;3.80;;;25.10;26.50;;;;;;5113317;28;20467;-52
2023/05/11 09:02:59;;;;;;;3.70;3.23;;;25.20;25.80;;;;;;5114295;28;20826;-54
2023/05/11 09:05:26;;;;;;;3.43;3.13;;;25.20;24.30;;;;;;5117727;28;20405;-55
2023/05/11 09:08:03;;;;;;;7.20;3.33;;;25.20;25.30;;;;;;5117371;28;20424;-56
2023/05/11 09:10:28;;;;;;;3.80;3.20;;;25.30;24.40;;;;;;5116855;27;20448;-55
2023/05/11 09:12:54;;;;;;;3.57;3.27;;;25.30;25.20;;;;;;5116633;28;20411;-53
2023/05/11 09:15:20;;;;;;;7.80;3.60;;;25.40;24.70;;;;;;5116892;28;20186;-52
2023/05/11 09:17:46;;;;;;;5.80;4.00;;;25.40;24.70;;;;;;5116646;28;20197;-54
2023/05/11 09:20:12;;;;;;;6.00;4.30;;;25.40;24.80;;;;;;5115702;28;20467;-52
2023/05/11 09:22:45;;;;;;;4.93;3.23;;;25.50;23.90;;;;;;5116417;27;20405;-55
2023/05/11 09:25:12;;;;;;;4.20;2.70;;;25.60;24.80;;;;;;5116590;28;20168;-55
2023/05/11 09:27:45;;;;;;;3.00;2.77;;;25.70;24.70;;;;;;5116105;28;20795;-55
2023/05/11 09:30:16;;;;;;;3.47;3.17;;;25.80;23.20;;;;;;5115932;27;20433;-55
2023/05/11 09:32:59;;;;;;;4.47;3.00;;;25.80;23.70;;;;;;5115862;28;20425;-56
2023/05/11 09:35:28;;;;;;;6.90;3.37;;;25.90;24.60;;;;;;5116471;27;20417;-55
2023/05/11 09:38:03;;;;;;;5.40;3.40;;;26.00;23.70;;;;;;5116684;28;20462;-55
2023/05/11 09:40:30;;;;;;;3.30;2.93;;;26.20;25.20;;;;;;5116646;28;20456;-52
2023/05/11 09:42:57;;;;;;;5.20;3.90;;;26.30;23.90;;;;;;5115660;28;20470;-52
2023/05/11 09:45:41;;;;;;;5.13;3.10;;;26.40;24.60;;;;;;5116466;28;20500;-54
2023/05/11 09:48:25;;;;;;;3.17;2.87;;;26.60;24.60;;;;;;5116203;28;20493;-53
2023/05/11 09:50:58;;;;;;;3.43;3.13;;;26.60;23.10;;;;;;5116624;28;20474;-54
2023/05/11 09:53:40;;;;;;;3.47;3.17;;;26.60;21.90;;;;;;5117026;28;20484;-55
2023/05/11 09:56:06;;;;;;;3.60;2.67;;;26.50;21.40;;;;;;5115145;28;20417;-53
2023/05/11 09:58:45;;;;;;;4.53;4.03;;;26.30;22.20;;;;;;5115033;28;20470;-52
2023/05/11 10:01:11;;;;;;;2.77;2.57;;;26.30;22.40;;;;;;5114473;28;20464;-53
2023/05/11 10:03:52;;;;;;;3.27;2.83;;;26.30;22.40;;;;;;5114764;28;20409;-53
2023/05/11 10:06:18;;;;;;;5.90;2.60;;;26.40;21.90;;;;;;5115160;28;20286;-53
2023/05/11 10:08:44;;;;;;;3.53;2.33;;;26.60;22.20;;;;;;5114948;28;20747;-51
2023/05/11 10:11:10;;;;;;;5.50;3.00;;;26.60;22.10;;;;;;5113996;28;20510;-53
2023/05/11 10:13:37;;;;;;;3.10;2.80;;;26.60;20.40;;;;;;5114209;28;20492;-53
2023/05/11 10:16:03;;;;;;;2.80;2.47;;;26.60;21.30;;;;;;5114610;28;20466;-51
2023/05/11 10:18:31;;;;;;;3.20;1.90;;;26.70;20.40;;;;;;5114352;28;20401;-53
2023/05/11 10:20:57;;;;;;;3.30;2.60;;;26.70;19.60;;;;;;5114067;28;20452;-53
2023/05/11 10:23:24;;;;;;;4.50;3.10;;;26.70;19.20;;;;;;5114260;28;20493;-53
2023/05/11 10:25:52;;;;;;;3.80;2.30;;;26.70;20.00;;;;;;5114098;28;20492;-55
2023/05/11 10:28:19;;;;;;;5.80;2.47;;;26.80;20.00;;;;;;5114209;28;20415;-54
2023/05/11 10:30:46;;;;;;;2.70;2.30;;;26.80;19.60;;;;;;5113670;28;20429;-55
2023/05/11 10:33:12;;;;;;;5.60;2.30;;;26.90;20.00;;;;;;5113915;28;20466;-56
2023/05/11 10:35:38;;;;;;;5.10;2.33;;;27.10;20.80;;;;;;5114125;28;20433;-55
2023/05/11 10:38:06;;;;;;;5.30;2.50;;;27.10;19.30;;;;;;5114178;28;20412;-54
2023/05/11 10:40:37;;;;;;;2.90;2.17;;;27.10;18.80;;;;;;5113505;28;20834;-56
2023/05/11 10:43:36;;;;;;;6.07;2.93;;;27.00;18.50;;;;;;5113795;28;20875;-55
2023/05/11 10:46:22;;;;;;;3.80;2.53;;;27.10;18.70;;;;;;5110587;28;20425;-56
2023/05/11 10:49:22;;;;;;;4.70;3.10;;;27.00;19.20;;;;;;5113652;28;20404;-56
2023/05/11 10:52:11;;;;;;;2.50;2.20;;;27.10;19.50;;;;;;5113641;28;20413;-55
2023/05/11 10:54:59;;;;;;;3.13;2.10;;;27.10;19.60;;;;;;5113534;28;20393;-55
2023/05/11 10:57:43;;;;;;;3.33;2.70;;;27.20;19.40;;;;;;5113449;28;20404;-53
2023/05/11 11:00:42;;;;;;;2.27;2.07;;;27.30;20.00;;;;;;5113363;28;20806;-55
2023/05/11 11:03:11;;;;;;;3.10;2.53;;;27.60;18.20;;;;;;5113438;28;20475;-56
2023/05/11 11:05:38;;;;;;;3.77;2.67;;;27.40;18.10;;;;;;5113319;28;20500;-54
2023/05/11 11:08:07;;;;;;;3.20;2.90;;;27.30;19.70;;;;;;5113347;28;20774;-55
2023/05/11 11:10:45;;;;;;;5.23;2.67;;;27.40;19.30;;;;;;5112870;28;20457;-54
2023/05/11 11:13:12;;;;;;;2.93;2.67;;;27.40;19.00;;;;;;5113283;28;20399;-55
2023/05/11 11:15:53;;;;;;;2.33;2.13;;;27.30;19.60;;;;;;5113187;28;20884;-56
2023/05/11 11:18:23;;;;;;;2.43;2.23;;;27.20;19.50;;;;;;5113146;28;20420;-55
2023/05/11 11:20:51;;;;;;;5.73;2.40;;;27.20;19.60;;;;;;5112735;28;20625;-55
2023/05/11 11:23:38;;;;;;;4.63;2.70;;;27.20;18.90;;;;;;5113145;28;20405;-55
2023/05/11 11:26:05;;;;;;;3.30;3.00;;;27.20;19.70;;;;;;5112564;28;20392;-55
2023/05/11 11:28:59;;;;;;;4.10;2.77;;;27.40;19.90;;;;;;5112965;28;20408;-55
2023/05/11 11:31:29;;;;;;;2.90;2.40;;;27.70;19.00;;;;;;5109770;28;20468;-55
2023/05/11 11:33:57;;;;;;;5.47;2.33;;;27.60;18.90;;;;;;5112829;28;20401;-56
2023/05/11 11:36:54;;;;;;;3.70;2.27;;;27.80;19.50;;;;;;5112812;28;20778;-53
2023/05/11 11:39:24;;;;;;;3.37;2.70;;;28.10;19.70;;;;;;5112491;28;20416;-53
2023/05/11 11:42:03;;;;;;;2.93;2.63;;;28.20;18.60;;;;;;5112531;28;20950;-53
2023/05/11 11:44:30;;;;;;;2.93;2.60;;;28.30;19.50;;;;;;5112741;28;20447;-53
2023/05/11 11:47:22;;;;;;;3.10;2.80;;;28.20;19.00;;;;;;5112822;28;20481;-53
2023/05/11 11:49:52;;;;;;;2.67;2.47;;;28.10;19.50;;;;;;5109739;28;20949;-53
2023/05/11 11:52:27;;;;;;;3.37;2.63;;;28.20;20.30;;;;;;5112399;27;20946;-55
2023/05/11 11:54:55;;;;;;;3.80;2.53;;;28.20;18.80;;;;;;5112580;28;20906;-53
2023/05/11 11:57:50;;;;;;;6.00;2.73;;;28.00;19.40;;;;;;5112538;28;20973;-53
2023/05/11 12:00:20;;;;;;;3.07;2.23;;;27.70;19.30;;;;;;5111387;28;20464;-53
2023/05/11 12:02:46;;;;;;;3.80;3.00;;;27.50;19.70;;;;;;5112361;28;20488;-54
2023/05/11 12:05:17;;;;;;;2.80;2.23;;;27.20;19.70;;;;;;5112394;28;20492;-52
2023/05/11 12:07:45;;;;;;;6.90;2.70;;;27.00;20.00;;;;;;5112424;28;20923;-55
2023/05/11 12:10:12;;;;;;;3.20;2.80;;;26.80;20.40;;;;;;5112098;28;20452;-54
2023/05/11 12:12:39;;;;;;;2.90;2.60;;;26.70;19.50;;;;;;5112262;28;20413;-52
2023/05/11 12:15:06;;;;;;;3.43;3.13;;;26.40;20.60;;;;;;5112295;28;20409;-52
2023/05/11 12:17:36;;;;;;;3.17;2.67;;;26.30;21.00;;;;;;5112185;28;20466;-54
2023/05/11 12:20:16;;;;;;;3.20;2.87;;;26.10;21.20;;;;;;5112218;28;20460;-52
2023/05/11 12:22:47;;;;;;;3.80;3.00;;;26.10;21.80;;;;;;5112392;28;20428;-54
2023/05/11 12:25:16;;;;;;;3.30;2.80;;;25.90;21.70;;;;;;5112328;28;20393;-51
2023/05/11 12:27:49;;;;;;;4.03;2.43;;;25.90;22.20;;;;;;5112061;28;20405;-53
2023/05/11 12:30:25;;;;;;;6.33;3.30;;;25.90;21.20;;;;;;5111915;28;20420;-54
2023/05/11 12:32:52;;;;;;;9.20;3.17;;;25.80;21.80;;;;;;5112219;28;20441;-53
2023/05/11 12:35:24;;;;;;;3.20;2.60;;;25.70;21.50;;;;;;5112388;28;20417;-51
2023/05/11 12:37:50;;;;;;;3.87;2.60;;;25.70;20.70;;;;;;5115005;28;20771;-52
2023/05/11 12:40:16;;;;;;;2.90;2.70;;;25.50;21.50;;;;;;5115974;28;20495;-54
2023/05/11 12:43:02;;;;;;;3.47;2.90;;;25.50;21.70;;;;;;5116354;28;20492;-52
2023/05/11 12:45:28;;;;;;;3.63;2.63;;;25.60;22.10;;;;;;5115810;28;20480;-52
2023/05/11 12:47:55;;;;;;;3.73;3.23;;;25.50;21.70;;;;;;5116280;28;20416;-51
2023/05/11 12:50:21;;;;;;;4.00;3.17;;;25.40;21.60;;;;;;5115599;28;20432;-53
2023/05/11 12:52:50;;;;;;;3.93;2.70;;;25.30;21.50;;;;;;5115933;28;20397;-51
2023/05/11 12:55:29;;;;;;;3.07;2.77;;;25.30;22.30;;;;;;5116122;28;20447;-53
2023/05/11 12:58:07;;;;;;;5.40;2.70;;;25.40;21.80;;;;;;5115832;28;20910;-51